sensor_id;sensor_type;location;lat;lon;timestamp;P1;durP1;ratioP1;P2;durP2;ratioP2
19780;SDS011;10050;55.492;13.506;2024-03-23T00:54:36;11.97;;;3.63;;
19780;SDS011;10050;55.492;13.506;2024-03-23T00:57:02;14.83;;;3.93;;
19780;SDS011;10050;55.492;13.506;2024-03-23T00:59:28;18.90;;;4.30;;
19780;SDS011;10050;55.492;13.506;2024-03-23T01:01:54;18.87;;;3.63;;
19780;SDS011;10050;55.492;13.506;2024-03-23T01:04:20;11.57;;;3.00;;
19780;SDS011;10050;55.492;13.506;2024-03-23T01:06:46;12.77;;;3.17;;
19780;SDS011;10050;55.492;13.506;2024-03-23T01:09:17;15.20;;;3.17;;
19780;SDS011;10050;55.492;13.506;2024-03-23T01:11:43;14.87;;;3.73;;
19780;SDS011;10050;55.492;13.506;2024-03-23T01:14:09;16.13;;;3.17;;
19780;SDS011;10050;55.492;13.506;2024-03-23T01:16:37;13.37;;;3.87;;
19780;SDS011;10050;55.492;13.506;2024-03-23T01:19:03;14.33;;;3.30;;
19780;SDS011;10050;55.492;13.506;2024-03-23T01:21:28;19.47;;;3.97;;
19780;SDS011;10050;55.492;13.506;2024-03-23T01:23:54;11.83;;;2.70;;
19780;SDS011;10050;55.492;13.506;2024-03-23T01:26:20;10.40;;;2.97;;
19780;SDS011;10050;55.492;13.506;2024-03-23T01:28:50;15.40;;;3.77;;
19780;SDS011;10050;55.492;13.506;2024-03-23T01:31:15;14.97;;;3.53;;
19780;SDS011;10050;55.492;13.506;2024-03-23T01:33:41;14.90;;;3.73;;
19780;SDS011;10050;55.492;13.506;2024-03-23T01:36:09;18.30;;;2.90;;
19780;SDS011;10050;55.492;13.506;2024-03-23T01:38:35;12.90;;;3.80;;
19780;SDS011;10050;55.492;13.506;2024-03-23T01:41:01;11.27;;;3.13;;
19780;SDS011;10050;55.492;13.506;2024-03-23T01:43:27;13.93;;;3.37;;
19780;SDS011;10050;55.492;13.506;2024-03-23T01:45:52;12.83;;;3.40;;
19780;SDS011;10050;55.492;13.506;2024-03-23T01:48:19;21.13;;;4.77;;
19780;SDS011;10050;55.492;13.506;2024-03-23T01:50:45;15.90;;;4.07;;
19780;SDS011;10050;55.492;13.506;2024-03-23T01:53:11;14.43;;;3.30;;
19780;SDS011;10050;55.492;13.506;2024-03-23T01:55:40;9.03;;;3.23;;
19780;SDS011;10050;55.492;13.506;2024-03-23T01:58:05;13.47;;;3.67;;
19780;SDS011;10050;55.492;13.506;2024-03-23T02:00:32;12.43;;;3.37;;
19780;SDS011;10050;55.492;13.506;2024-03-23T02:02:57;14.50;;;3.67;;
19780;SDS011;10050;55.492;13.506;2024-03-23T02:05:23;15.30;;;3.83;;
19780;SDS011;10050;55.492;13.506;2024-03-23T02:07:49;15.70;;;3.30;;
19780;SDS011;10050;55.492;13.506;2024-03-23T02:10:16;10.20;;;3.17;;
19780;SDS011;10050;55.492;13.506;2024-03-23T02:12:41;12.20;;;3.27;;
19780;SDS011;10050;55.492;13.506;2024-03-23T02:15:07;15.73;;;3.83;;
19780;SDS011;10050;55.492;13.506;2024-03-23T02:17:35;16.43;;;3.93;;
19780;SDS011;10050;55.492;13.506;2024-03-23T02:20:02;17.53;;;3.73;;
19780;SDS011;10050;55.492;13.506;2024-03-23T02:22:37;18.40;;;3.70;;
19780;SDS011;10050;55.492;13.506;2024-03-23T02:25:04;18.83;;;4.13;;
19780;SDS011;10050;55.492;13.506;2024-03-23T02:27:30;13.53;;;3.43;;
19780;SDS011;10050;55.492;13.506;2024-03-23T02:29:56;11.40;;;2.70;;
19780;SDS011;10050;55.492;13.506;2024-03-23T02:32:22;11.43;;;3.53;;
19780;SDS011;10050;55.492;13.506;2024-03-23T02:34:48;12.40;;;3.63;;
19780;SDS011;10050;55.492;13.506;2024-03-23T02:37:13;17.53;;;3.70;;
19780;SDS011;10050;55.492;13.506;2024-03-23T02:39:41;18.97;;;3.53;;
19780;SDS011;10050;55.492;13.506;2024-03-23T02:42:07;15.50;;;2.83;;
19780;SDS011;10050;55.492;13.506;2024-03-23T02:44:33;16.93;;;3.87;;
19780;SDS011;10050;55.492;13.506;2024-03-23T02:46:58;14.07;;;3.40;;
19780;SDS011;10050;55.492;13.506;2024-03-23T02:49:25;22.13;;;4.10;;
19780;SDS011;10050;55.492;13.506;2024-03-23T02:51:51;13.53;;;2.90;;
19780;SDS011;10050;55.492;13.506;2024-03-23T02:54:17;12.43;;;3.03;;
19780;SDS011;10050;55.492;13.506;2024-03-23T02:56:42;16.33;;;3.23;;
19780;SDS011;10050;55.492;13.506;2024-03-23T02:59:08;13.63;;;3.70;;
19780;SDS011;10050;55.492;13.506;2024-03-23T03:01:34;19.37;;;3.80;;
19780;SDS011;10050;55.492;13.506;2024-03-23T03:04:00;11.63;;;3.30;;
19780;SDS011;10050;55.492;13.506;2024-03-23T03:06:26;10.40;;;3.23;;
19780;SDS011;10050;55.492;13.506;2024-03-23T03:08:52;18.17;;;3.57;;
19780;SDS011;10050;55.492;13.506;2024-03-23T03:11:19;12.63;;;2.83;;
19780;SDS011;10050;55.492;13.506;2024-03-23T03:13:45;17.30;;;3.77;;
19780;SDS011;10050;55.492;13.506;2024-03-23T03:16:11;18.60;;;3.97;;
19780;SDS011;10050;55.492;13.506;2024-03-23T03:18:37;15.60;;;3.67;;
19780;SDS011;10050;55.492;13.506;2024-03-23T03:21:03;16.10;;;4.07;;
19780;SDS011;10050;55.492;13.506;2024-03-23T03:23:31;21.63;;;3.53;;
19780;SDS011;10050;55.492;13.506;2024-03-23T03:25:56;22.20;;;3.97;;
19780;SDS011;10050;55.492;13.506;2024-03-23T03:28:23;14.83;;;3.47;;
19780;SDS011;10050;55.492;13.506;2024-03-23T03:30:48;20.07;;;3.47;;
19780;SDS011;10050;55.492;13.506;2024-03-23T03:33:14;14.43;;;3.50;;
19780;SDS011;10050;55.492;13.506;2024-03-23T03:35:40;13.73;;;3.63;;
19780;SDS011;10050;55.492;13.506;2024-03-23T03:38:05;8.10;;;3.07;;
19780;SDS011;10050;55.492;13.506;2024-03-23T03:40:31;19.63;;;3.80;;
19780;SDS011;10050;55.492;13.506;2024-03-23T03:42:56;15.33;;;3.60;;
19780;SDS011;10050;55.492;13.506;2024-03-23T03:45:22;12.63;;;3.83;;
19780;SDS011;10050;55.492;13.506;2024-03-23T03:47:48;14.13;;;3.60;;
19780;SDS011;10050;55.492;13.506;2024-03-23T03:50:13;20.67;;;4.07;;
19780;SDS011;10050;55.492;13.506;2024-03-23T03:52:41;19.17;;;3.50;;
19780;SDS011;10050;55.492;13.506;2024-03-23T03:55:12;15.97;;;3.67;;
19780;SDS011;10050;55.492;13.506;2024-03-23T03:57:39;14.90;;;4.10;;
19780;SDS011;10050;55.492;13.506;2024-03-23T04:00:07;16.23;;;3.17;;
19780;SDS011;10050;55.492;13.506;2024-03-23T04:02:36;19.30;;;3.47;;
19780;SDS011;10050;55.492;13.506;2024-03-23T04:05:03;21.40;;;3.60;;
19780;SDS011;10050;55.492;13.506;2024-03-23T04:07:29;22.50;;;4.07;;
19780;SDS011;10050;55.492;13.506;2024-03-23T04:09:54;13.93;;;3.43;;
19780;SDS011;10050;55.492;13.506;2024-03-23T04:12:20;26.37;;;4.73;;
19780;SDS011;10050;55.492;13.506;2024-03-23T04:14:46;16.33;;;3.30;;
19780;SDS011;10050;55.492;13.506;2024-03-23T04:17:11;21.10;;;4.10;;
19780;SDS011;10050;55.492;13.506;2024-03-23T04:19:37;16.93;;;4.10;;
19780;SDS011;10050;55.492;13.506;2024-03-23T04:22:02;18.30;;;3.63;;
19780;SDS011;10050;55.492;13.506;2024-03-23T04:24:28;15.17;;;3.30;;
19780;SDS011;10050;55.492;13.506;2024-03-23T04:26:54;15.47;;;3.10;;
19780;SDS011;10050;55.492;13.506;2024-03-23T04:29:20;16.83;;;3.00;;
19780;SDS011;10050;55.492;13.506;2024-03-23T04:31:46;10.37;;;3.63;;
19780;SDS011;10050;55.492;13.506;2024-03-23T04:34:12;11.50;;;3.30;;
19780;SDS011;10050;55.492;13.506;2024-03-23T04:36:38;15.60;;;3.37;;
19780;SDS011;10050;55.492;13.506;2024-03-23T04:39:05;21.00;;;3.20;;
19780;SDS011;10050;55.492;13.506;2024-03-23T04:41:33;18.50;;;3.27;;
19780;SDS011;10050;55.492;13.506;2024-03-23T04:44:01;19.03;;;3.50;;
19780;SDS011;10050;55.492;13.506;2024-03-23T04:46:27;18.70;;;3.97;;
19780;SDS011;10050;55.492;13.506;2024-03-23T04:48:52;13.47;;;2.83;;
19780;SDS011;10050;55.492;13.506;2024-03-23T04:51:23;13.37;;;2.87;;
19780;SDS011;10050;55.492;13.506;2024-03-23T04:53:49;17.73;;;3.10;;
19780;SDS011;10050;55.492;13.506;2024-03-23T04:56:15;19.43;;;3.47;;
19780;SDS011;10050;55.492;13.506;2024-03-23T04:58:42;13.80;;;3.13;;
19780;SDS011;10050;55.492;13.506;2024-03-23T05:01:08;13.67;;;3.90;;
19780;SDS011;10050;55.492;13.506;2024-03-23T05:03:34;21.13;;;4.83;;
19780;SDS011;10050;55.492;13.506;2024-03-23T05:05:59;9.13;;;3.30;;
19780;SDS011;10050;55.492;13.506;2024-03-23T05:08:25;15.27;;;3.93;;
19780;SDS011;10050;55.492;13.506;2024-03-23T05:10:51;18.87;;;3.33;;
19780;SDS011;10050;55.492;13.506;2024-03-23T05:13:16;14.60;;;4.00;;
19780;SDS011;10050;55.492;13.506;2024-03-23T05:15:43;25.30;;;4.47;;
19780;SDS011;10050;55.492;13.506;2024-03-23T05:18:08;20.40;;;3.57;;
19780;SDS011;10050;55.492;13.506;2024-03-23T05:20:35;16.90;;;3.90;;
19780;SDS011;10050;55.492;13.506;2024-03-23T05:23:01;16.00;;;3.27;;
19780;SDS011;10050;55.492;13.506;2024-03-23T05:25:26;16.40;;;4.03;;
19780;SDS011;10050;55.492;13.506;2024-03-23T05:27:52;14.80;;;3.70;;
19780;SDS011;10050;55.492;13.506;2024-03-23T05:30:17;19.87;;;4.30;;
19780;SDS011;10050;55.492;13.506;2024-03-23T05:32:43;27.20;;;3.97;;
19780;SDS011;10050;55.492;13.506;2024-03-23T05:35:09;13.40;;;3.97;;
19780;SDS011;10050;55.492;13.506;2024-03-23T05:37:35;12.97;;;3.13;;
19780;SDS011;10050;55.492;13.506;2024-03-23T05:40:02;13.67;;;3.67;;
19780;SDS011;10050;55.492;13.506;2024-03-23T05:42:28;20.03;;;4.17;;
19780;SDS011;10050;55.492;13.506;2024-03-23T05:44:54;14.83;;;3.60;;
19780;SDS011;10050;55.492;13.506;2024-03-23T05:47:20;23.00;;;4.10;;
19780;SDS011;10050;55.492;13.506;2024-03-23T05:49:49;20.83;;;4.73;;
19780;SDS011;10050;55.492;13.506;2024-03-23T05:52:17;20.37;;;4.13;;
19780;SDS011;10050;55.492;13.506;2024-03-23T05:54:43;14.13;;;3.77;;
19780;SDS011;10050;55.492;13.506;2024-03-23T05:57:09;18.33;;;3.53;;
19780;SDS011;10050;55.492;13.506;2024-03-23T05:59:34;15.83;;;4.20;;
19780;SDS011;10050;55.492;13.506;2024-03-23T06:02:00;13.07;;;3.17;;
19780;SDS011;10050;55.492;13.506;2024-03-23T06:04:26;20.90;;;3.57;;
19780;SDS011;10050;55.492;13.506;2024-03-23T06:06:51;21.87;;;4.10;;
19780;SDS011;10050;55.492;13.506;2024-03-23T06:09:17;16.60;;;3.67;;
19780;SDS011;10050;55.492;13.506;2024-03-23T06:11:44;23.20;;;4.00;;
19780;SDS011;10050;55.492;13.506;2024-03-23T06:14:10;16.37;;;3.73;;
19780;SDS011;10050;55.492;13.506;2024-03-23T06:16:35;21.80;;;3.90;;
19780;SDS011;10050;55.492;13.506;2024-03-23T06:19:01;17.77;;;4.43;;
19780;SDS011;10050;55.492;13.506;2024-03-23T06:21:29;14.97;;;3.80;;
19780;SDS011;10050;55.492;13.506;2024-03-23T06:23:58;18.77;;;3.97;;
19780;SDS011;10050;55.492;13.506;2024-03-23T06:26:24;13.73;;;3.47;;
19780;SDS011;10050;55.492;13.506;2024-03-23T06:28:49;16.53;;;4.43;;
19780;SDS011;10050;55.492;13.506;2024-03-23T06:31:15;20.70;;;4.23;;
19780;SDS011;10050;55.492;13.506;2024-03-23T06:33:41;18.07;;;4.13;;
19780;SDS011;10050;55.492;13.506;2024-03-23T06:36:08;22.03;;;3.67;;
19780;SDS011;10050;55.492;13.506;2024-03-23T06:38:35;21.67;;;4.37;;
19780;SDS011;10050;55.492;13.506;2024-03-23T06:41:04;16.23;;;3.97;;
19780;SDS011;10050;55.492;13.506;2024-03-23T06:43:36;19.30;;;4.07;;
19780;SDS011;10050;55.492;13.506;2024-03-23T06:46:10;15.37;;;3.67;;
19780;SDS011;10050;55.492;13.506;2024-03-23T06:48:36;13.00;;;3.17;;
19780;SDS011;10050;55.492;13.506;2024-03-23T06:51:01;19.57;;;4.23;;
19780;SDS011;10050;55.492;13.506;2024-03-23T06:53:28;14.23;;;3.90;;
19780;SDS011;10050;55.492;13.506;2024-03-23T06:55:54;14.63;;;3.80;;
19780;SDS011;10050;55.492;13.506;2024-03-23T06:58:21;19.77;;;3.53;;
19780;SDS011;10050;55.492;13.506;2024-03-23T07:00:48;12.57;;;3.70;;
19780;SDS011;10050;55.492;13.506;2024-03-23T07:03:14;13.90;;;3.57;;
19780;SDS011;10050;55.492;13.506;2024-03-23T07:05:40;12.03;;;3.13;;
19780;SDS011;10050;55.492;13.506;2024-03-23T07:08:06;15.63;;;3.90;;
19780;SDS011;10050;55.492;13.506;2024-03-23T07:10:32;14.37;;;3.90;;
19780;SDS011;10050;55.492;13.506;2024-03-23T07:12:58;15.03;;;3.47;;
19780;SDS011;10050;55.492;13.506;2024-03-23T07:15:24;16.33;;;3.80;;
19780;SDS011;10050;55.492;13.506;2024-03-23T07:17:49;10.20;;;3.30;;
19780;SDS011;10050;55.492;13.506;2024-03-23T07:20:18;19.30;;;4.33;;
19780;SDS011;10050;55.492;13.506;2024-03-23T07:22:49;16.60;;;3.63;;
19780;SDS011;10050;55.492;13.506;2024-03-23T07:25:15;21.17;;;4.07;;
19780;SDS011;10050;55.492;13.506;2024-03-23T07:27:43;20.73;;;4.10;;
19780;SDS011;10050;55.492;13.506;2024-03-23T07:30:09;15.43;;;3.87;;
19780;SDS011;10050;55.492;13.506;2024-03-23T07:32:35;13.33;;;3.40;;
19780;SDS011;10050;55.492;13.506;2024-03-23T07:35:01;16.23;;;3.57;;
19780;SDS011;10050;55.492;13.506;2024-03-23T07:37:27;14.10;;;3.30;;
19780;SDS011;10050;55.492;13.506;2024-03-23T07:39:52;15.47;;;3.80;;
19780;SDS011;10050;55.492;13.506;2024-03-23T07:42:18;14.80;;;2.90;;
19780;SDS011;10050;55.492;13.506;2024-03-23T07:44:43;13.93;;;3.30;;
19780;SDS011;10050;55.492;13.506;2024-03-23T07:47:09;11.47;;;3.03;;
19780;SDS011;10050;55.492;13.506;2024-03-23T07:49:35;14.33;;;3.53;;
19780;SDS011;10050;55.492;13.506;2024-03-23T07:52:00;15.80;;;4.53;;
19780;SDS011;10050;55.492;13.506;2024-03-23T07:54:26;14.73;;;3.53;;
19780;SDS011;10050;55.492;13.506;2024-03-23T07:56:54;13.43;;;3.50;;
19780;SDS011;10050;55.492;13.506;2024-03-23T07:59:20;10.27;;;3.23;;
19780;SDS011;10050;55.492;13.506;2024-03-23T08:01:45;17.50;;;4.00;;
19780;SDS011;10050;55.492;13.506;2024-03-23T08:04:11;17.23;;;3.87;;
19780;SDS011;10050;55.492;13.506;2024-03-23T08:06:37;14.93;;;3.50;;
19780;SDS011;10050;55.492;13.506;2024-03-23T08:09:07;13.63;;;3.10;;
19780;SDS011;10050;55.492;13.506;2024-03-23T08:11:35;9.70;;;3.37;;
19780;SDS011;10050;55.492;13.506;2024-03-23T08:14:04;16.93;;;3.53;;
19780;SDS011;10050;55.492;13.506;2024-03-23T08:16:30;14.87;;;3.77;;
19780;SDS011;10050;55.492;13.506;2024-03-23T08:18:56;16.47;;;3.03;;
19780;SDS011;10050;55.492;13.506;2024-03-23T08:21:22;11.67;;;3.13;;
19780;SDS011;10050;55.492;13.506;2024-03-23T08:23:51;11.63;;;3.40;;
19780;SDS011;10050;55.492;13.506;2024-03-23T08:26:17;13.40;;;4.43;;
19780;SDS011;10050;55.492;13.506;2024-03-23T08:28:43;12.47;;;4.03;;
19780;SDS011;10050;55.492;13.506;2024-03-23T08:31:10;16.17;;;4.50;;
19780;SDS011;10050;55.492;13.506;2024-03-23T08:33:36;15.67;;;4.30;;
19780;SDS011;10050;55.492;13.506;2024-03-23T08:36:05;9.63;;;3.03;;
19780;SDS011;10050;55.492;13.506;2024-03-23T08:38:32;14.07;;;3.47;;
19780;SDS011;10050;55.492;13.506;2024-03-23T08:43:40;14.70;;;4.10;;
19780;SDS011;10050;55.492;13.506;2024-03-23T08:46:10;13.70;;;3.30;;
19780;SDS011;10050;55.492;13.506;2024-03-23T08:48:43;16.40;;;3.57;;
19780;SDS011;10050;55.492;13.506;2024-03-23T08:51:11;14.43;;;3.17;;
19780;SDS011;10050;55.492;13.506;2024-03-23T08:53:38;9.40;;;3.23;;
19780;SDS011;10050;55.492;13.506;2024-03-23T08:56:07;10.73;;;3.00;;
19780;SDS011;10050;55.492;13.506;2024-03-23T08:58:37;11.83;;;3.00;;
19780;SDS011;10050;55.492;13.506;2024-03-23T09:01:08;13.13;;;3.57;;
19780;SDS011;10050;55.492;13.506;2024-03-23T09:04:00;11.93;;;2.77;;
19780;SDS011;10050;55.492;13.506;2024-03-23T09:16:33;13.27;;;3.43;;
19780;SDS011;10050;55.492;13.506;2024-03-23T09:19:00;10.90;;;3.20;;
19780;SDS011;10050;55.492;13.506;2024-03-23T09:21:26;14.67;;;3.57;;
19780;SDS011;10050;55.492;13.506;2024-03-23T09:23:51;9.60;;;3.47;;
19780;SDS011;10050;55.492;13.506;2024-03-23T09:26:19;10.10;;;3.17;;
19780;SDS011;10050;55.492;13.506;2024-03-23T09:28:44;12.07;;;2.80;;
19780;SDS011;10050;55.492;13.506;2024-03-23T09:31:16;10.10;;;2.70;;
19780;SDS011;10050;55.492;13.506;2024-03-23T09:33:41;11.37;;;3.80;;
19780;SDS011;10050;55.492;13.506;2024-03-23T09:36:07;13.60;;;3.00;;
19780;SDS011;10050;55.492;13.506;2024-03-23T09:38:34;10.67;;;3.60;;
19780;SDS011;10050;55.492;13.506;2024-03-23T09:41:00;9.30;;;3.13;;
19780;SDS011;10050;55.492;13.506;2024-03-23T09:43:25;12.23;;;2.93;;
19780;SDS011;10050;55.492;13.506;2024-03-23T09:45:54;13.73;;;3.23;;
19780;SDS011;10050;55.492;13.506;2024-03-23T09:48:19;9.87;;;2.83;;
19780;SDS011;10050;55.492;13.506;2024-03-23T09:50:45;10.00;;;3.00;;
19780;SDS011;10050;55.492;13.506;2024-03-23T09:53:12;9.07;;;3.17;;
19780;SDS011;10050;55.492;13.506;2024-03-23T09:55:42;8.37;;;2.43;;
19780;SDS011;10050;55.492;13.506;2024-03-23T09:58:12;10.50;;;2.90;;
19780;SDS011;10050;55.492;13.506;2024-03-23T10:00:38;12.23;;;3.43;;
19780;SDS011;10050;55.492;13.506;2024-03-23T10:03:04;13.00;;;3.20;;
19780;SDS011;10050;55.492;13.506;2024-03-23T10:05:31;10.93;;;2.67;;
19780;SDS011;10050;55.492;13.506;2024-03-23T10:07:59;12.80;;;3.43;;
19780;SDS011;10050;55.492;13.506;2024-03-23T10:10:25;12.17;;;2.73;;
19780;SDS011;10050;55.492;13.506;2024-03-23T10:12:51;10.70;;;3.03;;
19780;SDS011;10050;55.492;13.506;2024-03-23T10:15:20;9.00;;;2.73;;
19780;SDS011;10050;55.492;13.506;2024-03-23T10:17:47;8.27;;;2.70;;
19780;SDS011;10050;55.492;13.506;2024-03-23T10:20:13;12.57;;;3.20;;
19780;SDS011;10050;55.492;13.506;2024-03-23T10:22:45;9.70;;;2.53;;
19780;SDS011;10050;55.492;13.506;2024-03-23T10:25:11;10.10;;;3.20;;
19780;SDS011;10050;55.492;13.506;2024-03-23T10:27:37;9.90;;;2.67;;
19780;SDS011;10050;55.492;13.506;2024-03-23T10:32:38;10.17;;;2.77;;
19780;SDS011;10050;55.492;13.506;2024-03-23T10:35:16;7.93;;;2.50;;
19780;SDS011;10050;55.492;13.506;2024-03-23T10:37:49;10.97;;;2.77;;
19780;SDS011;10050;55.492;13.506;2024-03-23T10:40:16;12.93;;;3.13;;
19780;SDS011;10050;55.492;13.506;2024-03-23T10:42:43;10.63;;;2.50;;
19780;SDS011;10050;55.492;13.506;2024-03-23T10:45:09;11.43;;;2.60;;
19780;SDS011;10050;55.492;13.506;2024-03-23T10:47:35;9.00;;;2.90;;
19780;SDS011;10050;55.492;13.506;2024-03-23T10:50:03;10.73;;;2.57;;
19780;SDS011;10050;55.492;13.506;2024-03-23T10:52:30;9.17;;;2.80;;
19780;SDS011;10050;55.492;13.506;2024-03-23T10:54:57;7.43;;;2.63;;
19780;SDS011;10050;55.492;13.506;2024-03-23T10:57:26;9.03;;;2.50;;
19780;SDS011;10050;55.492;13.506;2024-03-23T11:00:14;11.57;;;2.77;;
19780;SDS011;10050;55.492;13.506;2024-03-23T11:02:41;7.47;;;2.63;;
19780;SDS011;10050;55.492;13.506;2024-03-23T11:05:27;10.33;;;2.83;;
19780;SDS011;10050;55.492;13.506;2024-03-23T11:07:57;7.00;;;2.50;;
19780;SDS011;10050;55.492;13.506;2024-03-23T11:10:26;8.93;;;2.97;;
19780;SDS011;10050;55.492;13.506;2024-03-23T11:12:57;7.90;;;2.33;;
19780;SDS011;10050;55.492;13.506;2024-03-23T11:15:23;10.20;;;3.10;;
19780;SDS011;10050;55.492;13.506;2024-03-23T11:18:07;11.97;;;2.83;;
19780;SDS011;10050;55.492;13.506;2024-03-23T11:20:37;9.67;;;2.67;;
19780;SDS011;10050;55.492;13.506;2024-03-23T11:23:02;9.67;;;2.70;;
19780;SDS011;10050;55.492;13.506;2024-03-23T11:25:29;14.10;;;3.10;;
19780;SDS011;10050;55.492;13.506;2024-03-23T11:27:55;11.43;;;3.47;;
19780;SDS011;10050;55.492;13.506;2024-03-23T11:30:23;13.20;;;3.13;;
19780;SDS011;10050;55.492;13.506;2024-03-23T11:32:50;11.23;;;3.40;;
19780;SDS011;10050;55.492;13.506;2024-03-23T11:35:28;15.80;;;3.20;;
19780;SDS011;10050;55.492;13.506;2024-03-23T11:40:44;9.10;;;2.90;;
19780;SDS011;10050;55.492;13.506;2024-03-23T11:43:21;14.07;;;3.07;;
19780;SDS011;10050;55.492;13.506;2024-03-23T11:45:48;11.20;;;3.07;;
19780;SDS011;10050;55.492;13.506;2024-03-23T11:48:24;15.27;;;3.23;;
19780;SDS011;10050;55.492;13.506;2024-03-23T11:50:53;11.83;;;3.77;;
19780;SDS011;10050;55.492;13.506;2024-03-23T11:53:23;9.07;;;3.47;;
19780;SDS011;10050;55.492;13.506;2024-03-23T11:58:16;11.67;;;3.30;;
19780;SDS011;10050;55.492;13.506;2024-03-23T12:00:48;8.20;;;2.47;;
19780;SDS011;10050;55.492;13.506;2024-03-23T12:03:19;18.27;;;3.40;;
19780;SDS011;10050;55.492;13.506;2024-03-23T12:05:50;12.03;;;3.37;;
19780;SDS011;10050;55.492;13.506;2024-03-23T12:08:24;16.17;;;3.53;;
19780;SDS011;10050;55.492;13.506;2024-03-23T12:11:15;6.27;;;2.60;;
19780;SDS011;10050;55.492;13.506;2024-03-23T12:13:42;12.17;;;3.57;;
19780;SDS011;10050;55.492;13.506;2024-03-23T12:16:27;10.27;;;3.17;;
19780;SDS011;10050;55.492;13.506;2024-03-23T12:18:53;16.87;;;2.93;;
19780;SDS011;10050;55.492;13.506;2024-03-23T12:21:30;10.73;;;3.20;;
19780;SDS011;10050;55.492;13.506;2024-03-23T12:23:56;10.50;;;2.83;;
19780;SDS011;10050;55.492;13.506;2024-03-23T12:26:21;9.90;;;2.73;;
19780;SDS011;10050;55.492;13.506;2024-03-23T12:28:48;10.57;;;3.23;;
19780;SDS011;10050;55.492;13.506;2024-03-23T12:31:13;12.77;;;3.13;;
19780;SDS011;10050;55.492;13.506;2024-03-23T12:33:39;13.47;;;2.57;;
19780;SDS011;10050;55.492;13.506;2024-03-23T12:36:05;7.93;;;2.80;;
19780;SDS011;10050;55.492;13.506;2024-03-23T12:38:30;11.00;;;2.77;;
19780;SDS011;10050;55.492;13.506;2024-03-23T12:40:56;11.47;;;3.07;;
19780;SDS011;10050;55.492;13.506;2024-03-23T12:43:22;8.67;;;2.57;;
19780;SDS011;10050;55.492;13.506;2024-03-23T12:45:48;10.27;;;2.63;;
19780;SDS011;10050;55.492;13.506;2024-03-23T12:48:14;7.60;;;2.33;;
19780;SDS011;10050;55.492;13.506;2024-03-23T12:50:39;7.90;;;2.20;;
19780;SDS011;10050;55.492;13.506;2024-03-23T12:53:05;13.43;;;2.67;;
19780;SDS011;10050;55.492;13.506;2024-03-23T12:55:31;8.90;;;2.50;;
19780;SDS011;10050;55.492;13.506;2024-03-23T12:57:57;10.57;;;2.80;;
19780;SDS011;10050;55.492;13.506;2024-03-23T13:00:22;12.73;;;2.50;;
19780;SDS011;10050;55.492;13.506;2024-03-23T13:02:48;8.77;;;1.93;;
19780;SDS011;10050;55.492;13.506;2024-03-23T13:05:14;8.57;;;2.60;;
19780;SDS011;10050;55.492;13.506;2024-03-23T13:07:39;9.47;;;2.80;;
19780;SDS011;10050;55.492;13.506;2024-03-23T13:10:05;9.77;;;3.00;;
19780;SDS011;10050;55.492;13.506;2024-03-23T13:12:35;9.57;;;2.93;;
19780;SDS011;10050;55.492;13.506;2024-03-23T13:15:01;9.93;;;2.43;;
19780;SDS011;10050;55.492;13.506;2024-03-23T13:17:27;10.37;;;3.27;;
19780;SDS011;10050;55.492;13.506;2024-03-23T13:19:53;8.30;;;2.27;;
19780;SDS011;10050;55.492;13.506;2024-03-23T13:22:22;9.07;;;2.40;;
19780;SDS011;10050;55.492;13.506;2024-03-23T13:24:47;8.17;;;2.43;;
19780;SDS011;10050;55.492;13.506;2024-03-23T13:27:13;10.27;;;2.80;;
19780;SDS011;10050;55.492;13.506;2024-03-23T13:29:39;8.13;;;2.83;;
19780;SDS011;10050;55.492;13.506;2024-03-23T13:32:04;9.33;;;2.83;;
19780;SDS011;10050;55.492;13.506;2024-03-23T13:34:31;6.03;;;2.23;;
19780;SDS011;10050;55.492;13.506;2024-03-23T13:36:58;8.20;;;2.70;;
19780;SDS011;10050;55.492;13.506;2024-03-23T13:39:23;11.43;;;2.93;;
19780;SDS011;10050;55.492;13.506;2024-03-23T13:41:50;5.77;;;2.23;;
19780;SDS011;10050;55.492;13.506;2024-03-23T13:44:16;5.07;;;2.17;;
19780;SDS011;10050;55.492;13.506;2024-03-23T13:46:42;3.33;;;1.30;;
19780;SDS011;10050;55.492;13.506;2024-03-23T13:49:13;3.20;;;1.07;;
19780;SDS011;10050;55.492;13.506;2024-03-23T13:51:51;1.83;;;1.07;;
19780;SDS011;10050;55.492;13.506;2024-03-23T13:54:18;4.77;;;0.93;;
19780;SDS011;10050;55.492;13.506;2024-03-23T13:56:43;1.57;;;0.90;;
19780;SDS011;10050;55.492;13.506;2024-03-23T13:59:09;1.63;;;0.93;;
19780;SDS011;10050;55.492;13.506;2024-03-23T14:01:35;0.83;;;0.73;;
19780;SDS011;10050;55.492;13.506;2024-03-23T14:04:08;2.50;;;1.20;;
19780;SDS011;10050;55.492;13.506;2024-03-23T14:06:34;1.53;;;1.40;;
19780;SDS011;10050;55.492;13.506;2024-03-23T14:09:03;1.80;;;1.37;;
19780;SDS011;10050;55.492;13.506;2024-03-23T14:11:34;2.70;;;1.23;;
19780;SDS011;10050;55.492;13.506;2024-03-23T14:14:01;2.23;;;1.20;;
19780;SDS011;10050;55.492;13.506;2024-03-23T14:16:28;2.13;;;1.20;;
19780;SDS011;10050;55.492;13.506;2024-03-23T14:18:54;1.00;;;1.00;;
19780;SDS011;10050;55.492;13.506;2024-03-23T14:21:22;2.07;;;1.30;;
19780;SDS011;10050;55.492;13.506;2024-03-23T14:23:52;0.67;;;0.67;;
19780;SDS011;10050;55.492;13.506;2024-03-23T14:26:20;1.03;;;0.90;;
19780;SDS011;10050;55.492;13.506;2024-03-23T14:28:46;2.43;;;1.37;;
19780;SDS011;10050;55.492;13.506;2024-03-23T14:31:11;1.83;;;1.40;;
19780;SDS011;10050;55.492;13.506;2024-03-23T14:33:37;2.00;;;1.40;;
19780;SDS011;10050;55.492;13.506;2024-03-23T14:36:11;2.37;;;0.80;;
19780;SDS011;10050;55.492;13.506;2024-03-23T14:38:41;2.57;;;0.97;;
19780;SDS011;10050;55.492;13.506;2024-03-23T14:41:07;4.03;;;1.03;;
19780;SDS011;10050;55.492;13.506;2024-03-23T14:43:33;2.27;;;0.87;;
19780;SDS011;10050;55.492;13.506;2024-03-23T14:46:05;1.33;;;0.93;;
19780;SDS011;10050;55.492;13.506;2024-03-23T14:48:31;3.63;;;0.97;;
19780;SDS011;10050;55.492;13.506;2024-03-23T14:50:57;2.57;;;0.87;;
19780;SDS011;10050;55.492;13.506;2024-03-23T14:53:24;1.90;;;1.00;;
19780;SDS011;10050;55.492;13.506;2024-03-23T14:55:51;2.77;;;0.97;;
19780;SDS011;10050;55.492;13.506;2024-03-23T14:58:19;3.73;;;1.30;;
19780;SDS011;10050;55.492;13.506;2024-03-23T15:00:44;3.10;;;1.17;;
19780;SDS011;10050;55.492;13.506;2024-03-23T15:03:10;3.47;;;1.17;;
19780;SDS011;10050;55.492;13.506;2024-03-23T15:05:35;4.70;;;1.30;;
19780;SDS011;10050;55.492;13.506;2024-03-23T15:08:02;1.90;;;1.07;;
19780;SDS011;10050;55.492;13.506;2024-03-23T15:10:28;2.60;;;1.10;;
19780;SDS011;10050;55.492;13.506;2024-03-23T15:12:54;2.30;;;1.40;;
19780;SDS011;10050;55.492;13.506;2024-03-23T15:15:20;3.60;;;1.53;;
19780;SDS011;10050;55.492;13.506;2024-03-23T15:17:45;3.87;;;1.50;;
19780;SDS011;10050;55.492;13.506;2024-03-23T15:20:11;4.17;;;1.40;;
19780;SDS011;10050;55.492;13.506;2024-03-23T15:22:37;2.27;;;1.23;;
19780;SDS011;10050;55.492;13.506;2024-03-23T15:25:03;4.33;;;1.50;;
19780;SDS011;10050;55.492;13.506;2024-03-23T15:27:28;4.43;;;1.70;;
19780;SDS011;10050;55.492;13.506;2024-03-23T15:29:55;4.10;;;1.70;;
19780;SDS011;10050;55.492;13.506;2024-03-23T15:32:22;5.37;;;1.37;;
19780;SDS011;10050;55.492;13.506;2024-03-23T15:34:51;5.50;;;2.30;;
19780;SDS011;10050;55.492;13.506;2024-03-23T15:37:17;3.80;;;2.10;;
19780;SDS011;10050;55.492;13.506;2024-03-23T15:39:43;7.10;;;1.50;;